Time;durP1;ratioP1;P1;durP2;ratioP2;P2;SDS_P1;SDS_P2;PMS_P1;PMS_P2;Temp;Humidity;BMP_temperature;BMP_pressure;BME280_temperature;BME280_humidity;BME280_pressure;Samples;Min_cycle;Max_cycle;Signal;HPM_P1;HPM_P2
2024/01/19 00:01:39;;;;;;;3.40;1.07;;;;;;;-2.74;100.00;100340.84;5072665;28;20488;-66
2024/01/19 00:04:06;;;;;;;1.40;0.30;;;;;;;-2.67;100.00;100335.47;5073000;28;20529;-66
2024/01/19 00:06:34;;;;;;;3.60;1.23;;;;;;;-2.64;100.00;100345.63;5073011;28;20469;-66
2024/01/19 00:09:01;;;;;;;1.80;1.10;;;;;;;-2.63;100.00;100344.59;5073474;28;20483;-66
2024/01/19 00:11:27;;;;;;;1.60;0.50;;;;;;;-2.63;100.00;100348.06;5072550;28;20468;-66
2024/01/19 00:13:54;;;;;;;1.90;1.03;;;;;;;-2.58;100.00;100353.50;5073969;28;20812;-66
2024/01/19 00:16:20;;;;;;;1.57;0.40;;;;;;;-2.52;100.00;100357.13;5076381;28;20519;-66
2024/01/19 00:18:47;;;;;;;1.80;0.83;;;;;;;-2.50;100.00;100351.59;5076989;28;20524;-66
2024/01/19 00:21:14;;;;;;;1.90;0.77;;;;;;;-2.47;100.00;100348.53;5076399;28;20852;-66
2024/01/19 00:23:42;;;;;;;1.50;0.40;;;;;;;-2.42;100.00;100359.28;5076816;28;20480;-66
2024/01/19 00:26:08;;;;;;;1.50;0.30;;;;;;;-2.47;100.00;100362.59;5076172;28;20529;-66
2024/01/19 00:28:35;;;;;;;1.87;0.77;;;;;;;-2.42;100.00;100367.22;5076552;28;20481;-66
2024/01/19 00:31:02;;;;;;;1.70;0.50;;;;;;;-2.45;100.00;100360.50;5076879;28;20524;-66
2024/01/19 00:33:28;;;;;;;1.50;0.50;;;;;;;-2.43;100.00;100368.25;5076187;28;20538;-66
2024/01/19 00:35:55;;;;;;;1.60;0.60;;;;;;;-2.47;100.00;100370.53;5076557;28;20480;-66
2024/01/19 00:38:21;;;;;;;1.60;0.50;;;;;;;-2.50;100.00;100373.63;5076198;28;20465;-66
2024/01/19 00:40:49;;;;;;;1.90;0.93;;;;;;;-2.54;100.00;100378.53;5076537;28;20503;-66
2024/01/19 00:43:16;;;;;;;1.50;0.40;;;;;;;-2.57;100.00;100376.34;5075706;28;21003;-66
2024/01/19 00:45:43;;;;;;;1.73;0.77;;;;;;;-2.59;100.00;100378.41;5076538;28;20528;-66
2024/01/19 00:48:09;;;;;;;1.50;0.40;;;;;;;-2.59;100.00;100375.75;5076114;28;20443;-67
2024/01/19 00:50:36;;;;;;;2.83;1.17;;;;;;;-2.59;100.00;100374.94;5075997;28;20452;-65
2024/01/19 00:53:03;;;;;;;3.70;0.90;;;;;;;-2.62;100.00;100383.31;5075758;28;21011;-65
2024/01/19 00:55:30;;;;;;;1.80;0.87;;;;;;;-2.60;100.00;100381.28;5076208;28;20441;-66
2024/01/19 00:57:58;;;;;;;1.50;0.30;;;;;;;-2.59;100.00;100385.53;5075880;28;20528;-65
2024/01/19 01:00:24;;;;;;;1.60;0.70;;;;;;;-2.60;100.00;100383.94;5075745;28;20514;-65
2024/01/19 01:02:51;;;;;;;1.47;0.30;;;;;;;-2.61;100.00;100384.97;5075683;28;20463;-66
2024/01/19 01:05:19;;;;;;;1.80;0.47;;;;;;;-2.64;100.00;100383.56;5076095;28;20447;-66
2024/01/19 01:07:45;;;;;;;1.50;0.40;;;;;;;-2.63;100.00;100387.81;5076352;28;20530;-66
2024/01/19 01:10:12;;;;;;;1.50;0.40;;;;;;;-2.62;100.00;100391.28;5076170;28;20495;-66
2024/01/19 01:12:38;;;;;;;1.80;0.80;;;;;;;-2.65;100.00;100392.53;5075677;28;20880;-66
2024/01/19 01:15:07;;;;;;;1.50;0.40;;;;;;;-2.64;100.00;100394.16;5075224;28;20476;-66
2024/01/19 01:17:34;;;;;;;1.40;0.30;;;;;;;-2.62;100.00;100402.69;5075656;28;20442;-66
2024/01/19 01:20:01;;;;;;;1.50;0.50;;;;;;;-2.62;100.00;100396.56;5075800;28;20517;-66
2024/01/19 01:22:27;;;;;;;2.93;1.07;;;;;;;-2.67;100.00;100407.84;5075630;28;20469;-66
2024/01/19 01:24:54;;;;;;;3.63;1.27;;;;;;;-2.63;100.00;100395.78;5075289;28;20449;-66
2024/01/19 01:27:21;;;;;;;1.50;0.37;;;;;;;-2.60;100.00;100400.63;5074744;28;20476;-66
2024/01/19 01:29:47;;;;;;;1.50;0.30;;;;;;;-2.62;100.00;100399.22;5075795;28;20892;-66
2024/01/19 01:32:15;;;;;;;1.50;0.40;;;;;;;-2.64;100.00;100399.47;5075077;28;20453;-66
2024/01/19 01:34:42;;;;;;;1.60;0.60;;;;;;;-2.66;100.00;100395.38;5074772;28;20524;-66
2024/01/19 01:37:08;;;;;;;3.90;0.70;;;;;;;-2.66;100.00;100404.16;5075089;28;20437;-66
2024/01/19 01:39:35;;;;;;;1.70;0.63;;;;;;;-2.68;100.00;100405.41;5074738;28;20448;-66
2024/01/19 01:42:02;;;;;;;3.73;2.17;;;;;;;-2.71;100.00;100403.19;5074634;28;20505;-66
2024/01/19 01:44:30;;;;;;;1.50;0.40;;;;;;;-2.71;100.00;100408.50;5075687;28;20544;-66
2024/01/19 01:46:56;;;;;;;1.80;0.67;;;;;;;-2.72;100.00;100409.53;5074768;28;20955;-66
2024/01/19 01:49:24;;;;;;;1.60;0.53;;;;;;;-2.71;100.00;100416.44;5074402;28;20513;-66
2024/01/19 01:51:51;;;;;;;2.00;0.83;;;;;;;-2.72;100.00;100428.88;5075040;28;20532;-66
2024/01/19 01:54:18;;;;;;;1.70;0.80;;;;;;;-2.72;100.00;100425.44;5075152;28;20449;-66
2024/01/19 01:56:45;;;;;;;1.70;0.60;;;;;;;-2.66;100.00;100421.91;5074321;28;20441;-66
2024/01/19 01:59:12;;;;;;;1.50;0.30;;;;;;;-2.64;100.00;100425.16;5074745;28;20445;-66
2024/01/19 02:01:38;;;;;;;1.60;0.60;;;;;;;-2.67;100.00;100428.22;5075284;28;20500;-66
2024/01/19 02:04:08;;;;;;;1.50;0.30;;;;;;;-2.73;100.00;100431.75;5075011;28;20520;-66
2024/01/19 02:06:36;;;;;;;1.50;0.33;;;;;;;-2.70;100.00;100441.91;5074145;28;20794;-66
2024/01/19 02:09:02;;;;;;;1.50;0.40;;;;;;;-2.70;100.00;100439.25;5074536;28;20491;-66
2024/01/19 02:11:29;;;;;;;1.60;0.57;;;;;;;-2.66;100.00;100435.97;5075137;28;20521;-66
2024/01/19 02:13:55;;;;;;;2.97;1.87;;;;;;;-2.67;100.00;100437.00;5074567;28;20442;-66
2024/01/19 02:16:22;;;;;;;1.53;0.47;;;;;;;-2.65;100.00;100434.94;5074463;28;20532;-66
2024/01/19 02:18:49;;;;;;;1.50;0.40;;;;;;;-2.60;100.00;100442.25;5074704;28;20992;-66
2024/01/19 02:21:16;;;;;;;1.60;0.60;;;;;;;-2.62;100.00;100447.75;5074319;28;20528;-66
2024/01/19 02:23:50;;;;;;;1.50;0.40;;;;;;;-2.65;100.00;100442.09;5074134;28;20456;-66
2024/01/19 02:26:18;;;;;;;1.50;0.30;;;;;;;-2.65;100.00;100440.25;5074501;28;20445;-66
2024/01/19 02:28:45;;;;;;;1.77;0.70;;;;;;;-2.64;100.00;100449.00;5073978;28;20858;-66
2024/01/19 02:31:12;;;;;;;1.50;0.40;;;;;;;-2.62;100.00;100454.91;5073998;28;20465;-65
2024/01/19 02:33:38;;;;;;;2.23;1.27;;;;;;;-2.57;100.00;100452.41;5073978;28;20792;-66
2024/01/19 02:36:05;;;;;;;1.77;0.70;;;;;;;-2.53;100.00;100457.03;5073908;28;20451;-66
2024/01/19 02:38:32;;;;;;;1.50;0.40;;;;;;;-2.55;100.00;100459.13;5073654;28;20468;-66
2024/01/19 02:40:59;;;;;;;1.60;0.63;;;;;;;-2.54;100.00;100459.94;5073596;28;20556;-66
2024/01/19 02:43:27;;;;;;;1.50;0.30;;;;;;;-2.52;100.00;100457.88;5073805;28;21032;-66
2024/01/19 02:45:53;;;;;;;1.60;0.60;;;;;;;-2.48;100.00;100466.19;5074139;28;20524;-66
2024/01/19 02:48:20;;;;;;;1.70;0.83;;;;;;;-2.47;100.00;100460.69;5074048;28;20520;-66
2024/01/19 02:50:46;;;;;;;1.50;0.30;;;;;;;-2.44;100.00;100468.19;5074027;28;20489;-66
2024/01/19 02:53:13;;;;;;;1.50;0.40;;;;;;;-2.45;100.00;100463.91;5073391;28;20544;-66
2024/01/19 02:55:40;;;;;;;1.50;0.40;;;;;;;-2.43;100.00;100463.72;5073689;28;20524;-66
2024/01/19 02:58:06;;;;;;;1.50;0.30;;;;;;;-2.40;100.00;100465.91;5073613;28;20460;-66
2024/01/19 03:00:34;;;;;;;1.53;0.40;;;;;;;-2.37;100.00;100465.50;5073638;28;20433;-66
2024/01/19 03:03:01;;;;;;;1.50;0.40;;;;;;;-2.35;99.73;100463.41;5074235;28;20460;-66
2024/01/19 03:05:27;;;;;;;1.90;0.50;;;;;;;-2.37;99.67;100470.78;5073619;28;20532;-66
2024/01/19 03:07:54;;;;;;;1.50;0.40;;;;;;;-2.36;99.94;100467.91;5073790;28;20473;-66
2024/01/19 03:10:20;;;;;;;1.50;0.40;;;;;;;-2.37;100.00;100468.94;5073660;28;20818;-66
2024/01/19 03:12:47;;;;;;;1.50;0.33;;;;;;;-2.35;99.36;100471.38;5073770;28;20548;-66
2024/01/19 03:15:14;;;;;;;1.97;1.03;;;;;;;-2.32;98.60;100469.09;5073291;28;21043;-66
2024/01/19 03:17:42;;;;;;;2.40;1.33;;;;;;;-2.26;98.76;100474.56;5073784;28;20442;-66
2024/01/19 03:20:09;;;;;;;1.60;0.60;;;;;;;-2.27;98.78;100471.09;5073495;28;20862;-66
2024/01/19 03:22:35;;;;;;;1.50;0.30;;;;;;;-2.25;98.51;100468.25;5073509;28;20496;-66
2024/01/19 03:25:02;;;;;;;1.50;0.40;;;;;;;-2.28;98.51;100474.78;5073344;28;20968;-66
2024/01/19 03:27:29;;;;;;;1.60;0.50;;;;;;;-2.24;98.38;100462.72;5073117;28;20999;-66
2024/01/19 03:29:56;;;;;;;1.60;0.50;;;;;;;-2.19;98.17;100468.16;5073657;28;20489;-66
2024/01/19 03:32:22;;;;;;;1.50;0.40;;;;;;;-2.20;97.22;100463.09;5073355;28;20552;-66
2024/01/19 03:34:51;;;;;;;1.50;0.40;;;;;;;-2.23;97.59;100463.50;5073160;28;20445;-67
2024/01/19 03:37:17;;;;;;;1.50;0.30;;;;;;;-2.21;97.71;100461.44;5073120;28;20528;-66
2024/01/19 03:39:44;;;;;;;1.60;0.50;;;;;;;-2.20;97.59;100468.38;5072960;28;20885;-66
2024/01/19 03:42:10;;;;;;;1.77;0.70;;;;;;;-2.23;97.58;100474.94;5073249;28;20816;-66
2024/01/19 03:44:37;;;;;;;1.60;0.50;;;;;;;-2.24;97.38;100480.47;5073410;28;20476;-67
2024/01/19 03:47:04;;;;;;;2.27;0.90;;;;;;;-2.19;96.93;100493.88;5073218;28;20497;-67
2024/01/19 03:49:30;;;;;;;1.50;0.40;;;;;;;-2.16;97.00;100496.09;5074581;28;20476;-67
2024/01/19 03:51:59;;;;;;;1.60;0.67;;;;;;;-2.09;97.40;100480.91;5077028;28;20493;-66
2024/01/19 03:54:26;;;;;;;1.50;0.40;;;;;;;-2.03;97.69;100486.16;5077111;28;20512;-66
2024/01/19 03:56:53;;;;;;;1.50;0.40;;;;;;;-1.95;97.62;100490.34;5076726;28;20858;-66
2024/01/19 03:59:20;;;;;;;1.50;0.40;;;;;;;-1.89;96.80;100486.81;5077298;28;20459;-66
2024/01/19 04:01:46;;;;;;;1.50;0.30;;;;;;;-1.84;96.13;100486.16;5076909;28;20544;-66
2024/01/19 04:04:13;;;;;;;1.50;0.30;;;;;;;-1.84;96.08;100484.31;5076972;28;20524;-66
2024/01/19 04:06:39;;;;;;;6.00;0.90;;;;;;;-1.83;96.37;100491.25;5076845;28;20480;-66
2024/01/19 04:09:08;;;;;;;1.50;0.30;;;;;;;-1.85;96.09;100490.66;5076606;28;20845;-66
2024/01/19 04:11:35;;;;;;;1.60;0.50;;;;;;;-1.84;96.36;100478.19;5076306;28;20452;-66
2024/01/19 04:14:02;;;;;;;1.60;0.50;;;;;;;-1.82;95.85;100479.59;5076655;28;20516;-66
2024/01/19 04:16:28;;;;;;;2.23;0.50;;;;;;;-1.85;96.04;100472.09;5076957;28;20447;-66
2024/01/19 04:18:55;;;;;;;3.50;1.13;;;;;;;-1.88;96.31;100483.13;5076356;28;20528;-67
2024/01/19 04:21:21;;;;;;;2.03;0.83;;;;;;;-1.88;95.86;100483.13;5076802;28;20433;-66
2024/01/19 04:23:49;;;;;;;1.60;0.50;;;;;;;-1.88;95.43;100488.44;5076089;28;20866;-67
2024/01/19 04:26:17;;;;;;;2.47;0.70;;;;;;;-1.90;95.53;100481.75;5076418;28;20433;-67
2024/01/19 04:28:44;;;;;;;1.50;0.37;;;;;;;-1.91;95.18;100483.56;5076401;28;20516;-68
2024/01/19 04:31:10;;;;;;;1.50;0.30;;;;;;;-1.95;95.29;100479.72;5075860;28;21016;-68
2024/01/19 04:33:37;;;;;;;1.50;0.50;;;;;;;-1.96;95.47;100483.44;5076245;28;20441;-68
2024/01/19 04:36:04;;;;;;;1.57;0.60;;;;;;;-1.99;95.70;100481.22;5076215;28;20941;-68
2024/01/19 04:38:31;;;;;;;1.70;0.50;;;;;;;-2.01;95.53;100487.78;5075997;28;20774;-68
2024/01/19 04:40:57;;;;;;;1.50;0.30;;;;;;;-1.97;95.74;100488.97;5076243;28;20532;-67
2024/01/19 04:43:25;;;;;;;1.50;0.30;;;;;;;-2.01;95.36;100487.78;5076058;28;20500;-67
2024/01/19 04:45:52;;;;;;;1.50;0.30;;;;;;;-2.02;95.88;100481.66;5076519;28;20469;-68
2024/01/19 04:48:19;;;;;;;1.60;0.57;;;;;;;-1.96;96.16;100490.56;5076278;28;20491;-68
2024/01/19 04:50:45;;;;;;;1.50;0.30;;;;;;;-1.95;96.43;100490.34;5075610;28;21016;-68
2024/01/19 04:53:12;;;;;;;1.50;0.30;;;;;;;-1.89;96.31;100489.47;5077123;28;20887;-68
2024/01/19 04:55:38;;;;;;;1.47;0.30;;;;;;;-1.90;95.74;100501.13;5077827;28;20528;-68
2024/01/19 04:58:05;;;;;;;1.60;0.60;;;;;;;-1.89;95.77;100497.44;5077346;28;20445;-68
2024/01/19 05:00:33;;;;;;;1.60;0.53;;;;;;;-1.83;96.23;100507.16;5075834;28;20520;-67
2024/01/19 05:03:01;;;;;;;1.97;0.83;;;;;;;-1.73;95.98;100509.31;5075651;28;20548;-67
2024/01/19 05:05:27;;;;;;;1.70;0.50;;;;;;;-1.63;95.03;100506.16;5075875;28;20476;-67
2024/01/19 05:07:55;;;;;;;3.13;0.67;;;;;;;-1.61;94.31;100515.50;5075448;28;20508;-67
2024/01/19 05:10:21;;;;;;;1.50;0.40;;;;;;;-1.61;94.60;100515.50;5075536;28;20576;-67
2024/01/19 05:12:47;;;;;;;2.13;1.13;;;;;;;-1.62;94.68;100515.72;5075794;28;21020;-67
2024/01/19 05:15:14;;;;;;;1.60;0.50;;;;;;;-1.63;94.55;100511.47;5075591;28;20257;-67
2024/01/19 05:17:42;;;;;;;1.43;0.30;;;;;;;-1.62;94.36;100510.41;5075555;28;20887;-67
2024/01/19 05:20:10;;;;;;;1.50;0.40;;;;;;;-1.64;94.79;100515.13;5075510;28;20480;-67
2024/01/19 05:22:37;;;;;;;1.50;0.40;;;;;;;-1.62;94.55;100502.44;5075007;28;20865;-67
2024/01/19 05:25:04;;;;;;;1.70;0.60;;;;;;;-1.64;94.13;100513.31;5075404;28;20853;-67
2024/01/19 05:27:30;;;;;;;1.77;0.87;;;;;;;-1.61;93.93;100520.00;5075598;28;20499;-67
2024/01/19 05:29:57;;;;;;;1.50;0.40;;;;;;;-1.64;94.34;100518.63;5075483;28;20532;-67
2024/01/19 05:32:23;;;;;;;1.50;0.30;;;;;;;-1.61;93.74;100520.00;5075362;28;20461;-67
2024/01/19 05:34:51;;;;;;;2.07;0.63;;;;;;;-1.60;94.63;100518.97;5074890;28;20437;-67
2024/01/19 05:37:18;;;;;;;1.63;0.50;;;;;;;-1.59;94.27;100532.03;5075188;28;20528;-67
2024/01/19 05:39:44;;;;;;;1.50;0.30;;;;;;;-1.61;94.60;100526.13;5074664;28;20521;-68
2024/01/19 05:42:11;;;;;;;4.80;0.67;;;;;;;-1.67;93.97;100534.19;5087229;22;20496;-65
2024/01/19 05:44:40;;;;;;;2.33;0.60;;;;;;;-1.67;94.06;100526.22;5075136;28;20438;-65
2024/01/19 05:47:06;;;;;;;1.50;0.37;;;;;;;-1.63;94.25;100535.34;5075106;28;20450;-65
2024/01/19 05:49:33;;;;;;;1.50;0.30;;;;;;;-1.58;93.99;100536.31;5074289;28;20880;-65
2024/01/19 05:52:01;;;;;;;1.70;0.77;;;;;;;-1.53;93.93;100527.66;5074920;28;20457;-65
2024/01/19 05:54:28;;;;;;;1.60;0.40;;;;;;;-1.53;93.78;100540.94;5074538;28;20441;-65
2024/01/19 05:56:55;;;;;;;3.80;1.43;;;;;;;-1.59;93.52;100531.22;5074419;28;20524;-65
2024/01/19 05:59:21;;;;;;;1.50;0.30;;;;;;;-1.54;93.77;100540.13;5074342;28;20477;-66
2024/01/19 06:01:48;;;;;;;1.50;0.30;;;;;;;-1.49;94.26;100544.78;5074520;28;20540;-65
2024/01/19 06:04:14;;;;;;;1.70;0.60;;;;;;;-1.48;93.67;100553.56;5074978;28;20481;-66
2024/01/19 06:06:41;;;;;;;1.53;0.40;;;;;;;-1.42;93.72;100539.38;5074175;28;20469;-66
2024/01/19 06:09:10;;;;;;;1.50;0.30;;;;;;;-1.40;93.15;100548.75;5074280;28;20451;-66
2024/01/19 06:11:36;;;;;;;1.50;0.30;;;;;;;-1.35;92.92;100546.25;5073944;28;20492;-66
2024/01/19 06:14:03;;;;;;;1.80;0.60;;;;;;;-1.39;93.39;100550.38;5074463;28;20537;-66
2024/01/19 06:16:30;;;;;;;1.50;0.30;;;;;;;-1.43;93.22;100564.31;5074432;28;20438;-66
2024/01/19 06:18:57;;;;;;;2.47;1.13;;;;;;;-1.38;92.90;100554.66;5074343;28;20516;-66
2024/01/19 06:21:24;;;;;;;1.80;0.77;;;;;;;-1.33;92.26;100568.09;5074219;28;20437;-66
2024/01/19 06:23:51;;;;;;;1.53;0.40;;;;;;;-1.36;92.53;100570.38;5074213;28;20524;-66
2024/01/19 06:26:19;;;;;;;1.50;0.40;;;;;;;-1.35;92.81;100572.81;5074038;28;20516;-66
2024/01/19 06:28:45;;;;;;;1.70;0.63;;;;;;;-1.36;92.78;100579.16;5074153;28;20519;-66
2024/01/19 06:31:12;;;;;;;4.23;0.90;;;;;;;-1.36;93.11;100575.69;5073707;28;20487;-66
2024/01/19 06:33:39;;;;;;;1.53;0.40;;;;;;;-1.38;93.14;100578.56;5074075;28;20469;-66
2024/01/19 06:36:08;;;;;;;1.50;0.30;;;;;;;-1.38;92.76;100588.38;5073980;28;20520;-66
2024/01/19 06:38:35;;;;;;;1.50;0.30;;;;;;;-1.40;93.08;100591.25;5073949;28;20495;-66
2024/01/19 06:41:02;;;;;;;1.50;0.40;;;;;;;-1.38;92.28;100581.22;5073762;28;20540;-66
2024/01/19 06:43:30;;;;;;;3.33;1.63;;;;;;;-1.42;92.44;100582.69;5074065;28;20882;-66
2024/01/19 06:45:57;;;;;;;1.63;0.60;;;;;;;-1.40;92.39;100577.97;5073886;28;20472;-64
2024/01/19 06:48:23;;;;;;;7.33;2.73;;;;;;;-1.37;92.64;100584.72;5073490;28;20474;-65
2024/01/19 06:50:50;;;;;;;1.50;0.40;;;;;;;-1.38;92.33;100594.50;5074306;28;20495;-65
2024/01/19 06:53:16;;;;;;;1.50;0.30;;;;;;;-1.35;92.38;100591.41;5073647;28;20565;-65
2024/01/19 06:55:43;;;;;;;1.50;0.30;;;;;;;-1.34;92.39;100586.91;5073654;28;20441;-65
2024/01/19 06:58:10;;;;;;;1.57;0.37;;;;;;;-1.37;92.58;100593.47;5073454;28;20944;-65
2024/01/19 07:00:38;;;;;;;1.60;0.40;;;;;;;-1.33;92.58;100602.63;5074132;28;20476;-65
2024/01/19 07:03:05;;;;;;;1.67;0.43;;;;;;;-1.31;92.43;100600.56;5073490;28;20493;-65
2024/01/19 07:05:31;;;;;;;1.80;0.67;;;;;;;-1.30;92.41;100596.84;5073541;28;20532;-66
2024/01/19 07:07:59;;;;;;;2.57;1.17;;;;;;;-1.31;92.47;100608.53;5073800;28;20437;-65
2024/01/19 07:10:25;;;;;;;1.50;0.30;;;;;;;-1.31;92.32;100605.88;5073828;28;20485;-65
2024/01/19 07:12:52;;;;;;;1.60;0.60;;;;;;;-1.31;92.25;100605.06;5073045;28;20457;-65
2024/01/19 07:15:19;;;;;;;1.50;0.30;;;;;;;-1.29;92.00;100606.44;5073887;28;20476;-67
2024/01/19 07:17:47;;;;;;;1.93;0.83;;;;;;;-1.31;92.05;100608.53;5073616;28;20469;-67
2024/01/19 07:20:14;;;;;;;1.87;0.80;;;;;;;-1.28;92.27;100623.22;5073696;28;20525;-65
2024/01/19 07:22:41;;;;;;;1.57;0.40;;;;;;;-1.32;92.04;100622.84;5073612;28;20464;-66
2024/01/19 07:25:09;;;;;;;1.87;0.63;;;;;;;-1.25;91.88;100624.59;5073181;28;20495;-66
2024/01/19 07:27:36;;;;;;;1.60;0.57;;;;;;;-1.24;92.24;100631.53;5073337;28;20445;-65
2024/01/19 07:30:03;;;;;;;1.50;0.37;;;;;;;-1.18;91.83;100630.66;5073719;28;20441;-65
2024/01/19 07:32:29;;;;;;;1.50;0.40;;;;;;;-1.18;92.32;100636.78;5072935;28;20482;-67
2024/01/19 07:34:57;;;;;;;2.73;1.63;;;;;;;-1.14;91.89;100643.28;5073302;28;20521;-65
2024/01/19 07:37:24;;;;;;;2.13;1.07;;;;;;;-1.08;92.03;100630.94;5073290;28;20442;-66
2024/01/19 07:39:50;;;;;;;1.93;0.73;;;;;;;-1.04;91.59;100626.81;5073271;28;20444;-66
2024/01/19 07:42:17;;;;;;;1.60;0.50;;;;;;;-1.05;91.75;100638.50;5072992;28;20465;-66
2024/01/19 07:44:44;;;;;;;1.50;0.40;;;;;;;-1.01;91.74;100642.31;5073132;28;20524;-66
2024/01/19 07:47:10;;;;;;;1.70;0.60;;;;;;;-1.04;91.75;100662.16;5073135;28;20433;-66
2024/01/19 07:49:37;;;;;;;1.90;1.07;;;;;;;-1.01;92.12;100658.28;5073164;28;20461;-66
2024/01/19 07:52:06;;;;;;;1.60;0.47;;;;;;;-0.97;91.74;100654.13;5073270;28;20495;-64
2024/01/19 07:54:32;;;;;;;1.50;0.40;;;;;;;-0.96;92.31;100653.09;5073118;28;20807;-65
2024/01/19 07:56:59;;;;;;;1.53;0.40;;;;;;;-0.94;92.52;100664.31;5073391;28;20859;-65
2024/01/19 07:59:26;;;;;;;1.57;0.40;;;;;;;-0.89;92.21;100667.09;5073336;28;20974;-65
2024/01/19 08:01:52;;;;;;;1.60;0.60;;;;;;;-0.84;92.02;100672.59;5073496;28;20465;-65
2024/01/19 08:04:19;;;;;;;2.00;0.80;;;;;;;-0.81;91.84;100666.81;5073198;28;20937;-65
2024/01/19 08:06:46;;;;;;;1.80;0.70;;;;;;;-0.72;91.96;100671.81;5073066;28;20473;-65
2024/01/19 08:09:14;;;;;;;1.50;0.40;;;;;;;-0.68;91.62;100683.63;5072758;28;20498;-65
2024/01/19 08:11:41;;;;;;;1.60;0.60;;;;;;;-0.66;91.27;100682.38;5072790;28;20572;-65
2024/01/19 08:14:07;;;;;;;1.60;0.50;;;;;;;-0.65;91.77;100672.56;5073457;28;20441;-65
2024/01/19 08:16:34;;;;;;;1.50;0.30;;;;;;;-0.62;91.60;100677.41;5073395;28;20441;-65
2024/01/19 08:19:02;;;;;;;2.53;1.07;;;;;;;-0.57;91.52;100673.06;5073371;28;20528;-65
2024/01/19 08:21:28;;;;;;;1.70;0.80;;;;;;;-0.51;91.83;100692.63;5072867;28;20453;-66
2024/01/19 08:23:57;;;;;;;2.00;1.13;;;;;;;-0.49;91.91;100703.81;5072994;28;20532;-66
2024/01/19 08:26:25;;;;;;;1.80;0.63;;;;;;;-0.43;91.62;100705.59;5072898;28;20445;-65
2024/01/19 08:28:51;;;;;;;2.20;0.60;;;;;;;-0.36;91.50;100705.50;5073247;28;20444;-65
2024/01/19 08:31:18;;;;;;;1.50;0.30;;;;;;;-0.39;91.75;100698.81;5073061;28;20553;-65
2024/01/19 08:33:45;;;;;;;1.70;0.70;;;;;;;-0.41;92.28;100708.03;5073653;28;20433;-66
2024/01/19 08:36:11;;;;;;;1.70;0.70;;;;;;;-0.32;91.67;100710.16;5073863;28;20433;-66
2024/01/19 08:38:38;;;;;;;1.50;0.40;;;;;;;-0.31;91.42;100722.44;5076107;28;20996;-65
2024/01/19 08:41:05;;;;;;;2.07;1.03;;;;;;;-0.26;91.48;100724.41;5076265;28;20496;-66
2024/01/19 08:43:33;;;;;;;2.00;0.87;;;;;;;-0.26;92.00;100713.78;5075961;28;20909;-65
2024/01/19 08:46:00;;;;;;;1.53;0.37;;;;;;;-0.25;92.07;100723.38;5076280;28;20516;-65
2024/01/19 08:48:27;;;;;;;1.90;0.70;;;;;;;-0.14;91.67;100729.75;5076319;28;20445;-65
2024/01/19 08:50:54;;;;;;;2.10;0.77;;;;;;;-0.11;91.44;100724.00;5076411;28;20489;-65
2024/01/19 08:53:21;;;;;;;1.83;0.87;;;;;;;-0.10;90.91;100728.28;5075911;28;20816;-65
2024/01/19 08:55:47;;;;;;;1.57;0.43;;;;;;;-0.08;91.33;100726.22;5076078;28;20479;-67
2024/01/19 08:58:14;;;;;;;1.53;0.33;;;;;;;-0.07;91.84;100733.16;5075955;28;20469;-67
2024/01/19 09:00:42;;;;;;;1.60;0.40;;;;;;;-0.05;91.48;100739.84;5075793;28;20445;-66
2024/01/19 09:03:09;;;;;;;1.50;0.30;;;;;;;-0.04;91.26;100741.50;5076212;28;20556;-65
2024/01/19 09:05:36;;;;;;;2.50;1.43;;;;;;;-0.03;91.81;100744.97;5075761;28;20503;-65
2024/01/19 09:08:02;;;;;;;3.40;1.13;;;;;;;-0.04;91.83;100738.84;5076082;28;20496;-65
2024/01/19 09:10:30;;;;;;;1.70;0.53;;;;;;;0.01;91.25;100746.16;5075658;28;20537;-65
2024/01/19 09:12:56;;;;;;;1.83;0.83;;;;;;;0.07;91.94;100753.22;5075494;28;20485;-65
2024/01/19 09:15:23;;;;;;;2.00;0.70;;;;;;;0.13;91.34;100751.50;5075574;28;20443;-65
2024/01/19 09:17:51;;;;;;;1.60;0.50;;;;;;;0.07;92.05;100752.41;5075264;28;21022;-65
2024/01/19 09:20:17;;;;;;;1.60;0.50;;;;;;;0.14;92.06;100758.47;5075245;28;20440;-65
2024/01/19 09:22:44;;;;;;;10.67;2.17;;;;;;;0.23;91.56;100771.22;5075423;28;20453;-65
2024/01/19 09:25:11;;;;;;;2.20;1.00;;;;;;;0.21;91.71;100770.63;5075775;28;20534;-65
2024/01/19 09:27:38;;;;;;;2.30;1.30;;;;;;;0.22;92.46;100763.44;5075654;28;20437;-67
2024/01/19 09:30:06;;;;;;;1.60;0.47;;;;;;;0.26;92.10;100783.25;5075428;28;20952;-67
2024/01/19 09:32:33;;;;;;;1.80;0.70;;;;;;;0.31;92.21;100785.22;5075249;28;20517;-65
2024/01/19 09:35:01;;;;;;;2.00;0.80;;;;;;;0.41;91.03;100788.97;5074989;28;20963;-65
2024/01/19 09:37:27;;;;;;;3.50;1.07;;;;;;;0.44;90.74;100793.03;5075202;28;20442;-66
2024/01/19 09:39:54;;;;;;;1.60;0.50;;;;;;;0.44;91.10;100793.88;5075158;28;20441;-65
2024/01/19 09:42:25;;;;;;;1.60;0.50;;;;;;;0.46;90.98;100804.28;5074819;28;20957;-65
2024/01/19 09:45:01;;;;;;;2.80;1.50;;;;;;;0.53;91.20;100817.50;5075071;28;20434;-65
2024/01/19 09:47:36;;;;;;;4.07;0.93;;;;;;;0.58;91.37;100820.31;5074171;28;20928;-65
2024/01/19 09:50:06;;;;;;;2.97;1.07;;;;;;;0.64;91.39;100814.03;5075082;28;20425;-65
2024/01/19 09:52:43;;;;;;;1.80;0.90;;;;;;;0.66;90.76;100818.09;5074993;28;20489;-65
2024/01/19 09:55:10;;;;;;;1.60;0.40;;;;;;;0.79;90.23;100824.25;5074735;28;20416;-65
2024/01/19 09:57:44;;;;;;;2.00;1.20;;;;;;;0.81;89.65;100820.31;5074651;28;20444;-65
2024/01/19 10:00:13;;;;;;;2.33;1.00;;;;;;;0.86;89.27;100822.31;5074745;28;20414;-65
2024/01/19 10:02:43;;;;;;;1.57;0.37;;;;;;;0.84;89.94;100827.88;5074615;28;20945;-65
2024/01/19 10:05:13;;;;;;;1.90;0.80;;;;;;;0.94;89.36;100840.63;5074916;28;20456;-65
2024/01/19 10:07:41;;;;;;;2.37;0.73;;;;;;;0.97;89.12;100841.00;5074292;28;20438;-65
2024/01/19 10:10:08;;;;;;;1.83;0.77;;;;;;;1.00;88.98;100845.03;5074710;28;21008;-65
2024/01/19 10:12:36;;;;;;;5.10;2.10;;;;;;;1.00;89.58;100845.03;5074722;28;20840;-65
2024/01/19 10:15:02;;;;;;;2.20;0.70;;;;;;;1.02;89.55;100842.97;5074078;28;20950;-65
2024/01/19 10:17:29;;;;;;;5.20;1.57;;;;;;;1.12;89.37;100848.53;5074403;28;20532;-65
2024/01/19 10:19:58;;;;;;;4.47;1.33;;;;;;;1.08;89.63;100842.03;5074371;28;20875;-65
2024/01/19 10:22:27;;;;;;;3.30;2.00;;;;;;;1.21;89.20;100846.31;5074015;28;20784;-65
2024/01/19 10:25:02;;;;;;;1.57;0.47;;;;;;;1.23;88.95;100850.34;5074209;28;20439;-65
2024/01/19 10:27:39;;;;;;;1.57;0.40;;;;;;;1.22;88.88;100851.41;5074507;28;20515;-65
2024/01/19 10:30:12;;;;;;;3.77;1.07;;;;;;;1.26;88.86;100857.91;5074480;28;20436;-65
2024/01/19 10:32:40;;;;;;;2.43;0.87;;;;;;;1.32;88.72;100858.81;5073719;28;20520;-65
2024/01/19 10:35:09;;;;;;;1.80;0.60;;;;;;;1.32;88.96;100858.03;5073840;28;20437;-65
2024/01/19 10:37:37;;;;;;;1.80;0.80;;;;;;;1.37;88.50;100860.78;5074479;28;20441;-65
2024/01/19 10:40:15;;;;;;;2.10;1.03;;;;;;;1.41;88.29;100857.44;5074025;28;20996;-65
2024/01/19 10:42:42;;;;;;;2.10;1.07;;;;;;;1.50;87.68;100855.22;5073707;28;21040;-65
2024/01/19 10:45:15;;;;;;;2.73;1.60;;;;;;;1.57;87.95;100871.13;5073942;28;20472;-65
2024/01/19 10:47:43;;;;;;;1.70;0.60;;;;;;;1.56;88.43;100867.66;5073904;28;20414;-65
2024/01/19 10:50:13;;;;;;;2.47;1.07;;;;;;;1.68;87.47;100879.13;5073958;28;20434;-65
2024/01/19 10:52:42;;;;;;;1.60;0.47;;;;;;;1.73;87.16;100875.75;5073970;28;20477;-65
2024/01/19 10:55:10;;;;;;;2.37;1.70;;;;;;;1.73;87.25;100887.25;5073826;28;20543;-65
2024/01/19 10:57:37;;;;;;;1.70;0.60;;;;;;;1.79;86.86;100879.34;5073725;28;20496;-66
2024/01/19 11:00:20;;;;;;;1.73;0.47;;;;;;;1.84;86.23;100887.44;5073343;28;20528;-67
2024/01/19 11:02:48;;;;;;;1.60;0.50;;;;;;;1.89;86.49;100890.22;5074014;28;20522;-66
2024/01/19 11:05:16;;;;;;;2.30;1.10;;;;;;;1.93;86.91;100902.06;5074058;28;20430;-65
2024/01/19 11:07:44;;;;;;;1.60;0.50;;;;;;;2.06;85.20;100909.00;5074110;28;20433;-65
2024/01/19 11:10:12;;;;;;;3.80;1.47;;;;;;;2.11;85.26;100898.41;5074221;28;20448;-65
2024/01/19 11:12:47;;;;;;;1.87;0.60;;;;;;;2.19;84.82;100917.56;5073833;28;20520;-65
2024/01/19 11:15:20;;;;;;;1.90;0.77;;;;;;;2.22;84.43;100911.75;5073581;28;20436;-65
2024/01/19 11:17:48;;;;;;;2.93;1.77;;;;;;;2.35;83.65;100915.19;5074001;28;20413;-65
2024/01/19 11:20:15;;;;;;;1.80;0.60;;;;;;;2.28;84.40;100918.78;5073871;28;20448;-65
2024/01/19 11:22:44;;;;;;;1.50;0.40;;;;;;;2.37;82.77;100908.53;5073406;28;20537;-65
2024/01/19 11:25:16;;;;;;;3.50;0.90;;;;;;;2.40;83.18;100920.63;5073624;28;20441;-65